»·PEaware :: N5GL KVNY-KHND

N5GL :: KVNY-KHND

FLIGHT INFORMATION

Flight Status: Arrived
Operator: Privately registered:
United States
More flights under this callsign
Pilot: Georg L. (13308)
Aircraft: SOCATA TBM-900
(TBM9)
More flights by this aircraft type
Origin: KVNY Van Nuys
United States
Destination: KHND Henderson
United States
More flights between these airports :: More routes between these airports
Route: +NUAL1 DAG V587 BLD
File this flight plan on PilotEdge
Remarks:
Altitude:
(Current/Filed)
25,000ft
Speed:
(Current/Filed)
314kts
Departed: 29-Sep-20 12:01 PM
Arrived: 29-Sep-20 12:51 PM
Distance/Time
Traveled:
196nm/0:50
Distance/Time
To Go:
Arrived

Flight Plot

Page will automatically refresh every two minutes.

Flight plan parsing failed; only flown route is shown


Map Options




Map Legend


Flown Route
Filed Route
Departure Airport
Arrival Airport
Navaid (VOR, NDB)
Fix

Horizontal Profiles

Position Reports

Time Latitude Longitude Heading Altitude Ground
Speed
29-Sep-20 11:42 34.215713 -118.498307 269 778ft 0kts
29-Sep-20 11:43 34.215713 -118.498307 269 778ft 0kts
29-Sep-20 11:44 34.215713 -118.498307 269 778ft 0kts
29-Sep-20 11:45 34.215713 -118.498307 269 778ft 0kts
29-Sep-20 11:46 34.215713 -118.498307 269 778ft 0kts
29-Sep-20 11:47 34.215713 -118.498307 269 778ft 0kts
29-Sep-20 11:48 34.215713 -118.498307 269 778ft 0kts
29-Sep-20 11:49 34.215713 -118.498307 269 778ft 0kts
29-Sep-20 11:50 34.215713 -118.498307 269 778ft 0kts
29-Sep-20 11:51 34.215713 -118.498307 269 778ft 0kts
29-Sep-20 11:52 34.215713 -118.498307 269 778ft 0kts
29-Sep-20 11:53 34.215713 -118.498307 269 778ft 0kts
29-Sep-20 11:54 34.215713 -118.498307 269 778ft 0kts
29-Sep-20 11:55 34.215713 -118.498307 269 778ft 0kts
29-Sep-20 11:56 34.217031 -118.496942 46 778ft 11kts
29-Sep-20 11:57 34.217206 -118.492400 49 778ft 9kts
29-Sep-20 11:58 34.218674 -118.492173 53 778ft 0kts
29-Sep-20 11:59 34.218692 -118.492143 53 778ft 3kts
29-Sep-20 12:00 34.208328 -118.490373 177 850ft 114kts
29-Sep-20 12:01 34.176866 -118.485314 127 2589ft 131kts
29-Sep-20 12:02 34.159780 -118.445344 68 4779ft 138kts
29-Sep-20 12:03 34.207219 -118.438522 352 5029ft 226kts
29-Sep-20 12:04 34.260033 -118.445972 352 7738ft 166kts
29-Sep-20 12:05 34.300119 -118.434216 26 10115ft 154kts
29-Sep-20 12:06 34.346456 -118.405411 28 11333ft 209kts
29-Sep-20 12:07 34.400376 -118.371595 29 12673ft 222kts
29-Sep-20 12:08 34.455660 -118.336884 29 14074ft 226kts
29-Sep-20 12:09 34.496325 -118.280095 55 15420ft 227kts
29-Sep-20 12:10 34.534763 -118.218665 55 16785ft 231kts
29-Sep-20 12:11 34.574009 -118.155832 55 18132ft 236kts
29-Sep-20 12:12 34.613922 -118.091852 55 19487ft 239kts
29-Sep-20 12:13 34.636442 -118.018427 84 20769ft 238kts
29-Sep-20 12:14 34.645241 -117.937565 83 21911ft 243kts
29-Sep-20 12:15 34.654236 -117.854963 83 23046ft 248kts
29-Sep-20 12:16 34.663309 -117.771085 83 24254ft 253kts
29-Sep-20 12:17 34.683540 -117.687975 73 25232ft 263kts
29-Sep-20 12:18 34.706727 -117.597511 73 25236ft 293kts
29-Sep-20 12:19 34.731476 -117.500658 73 25229ft 303kts
29-Sep-20 12:20 34.756661 -117.401697 73 25223ft 307kts
29-Sep-20 12:21 34.781898 -117.302085 73 25219ft 309kts
29-Sep-20 12:22 34.807180 -117.201934 73 25214ft 310kts
29-Sep-20 12:23 34.832411 -117.101605 73 25210ft 309kts
29-Sep-20 12:24 34.857600 -117.001097 73 25210ft 310kts
29-Sep-20 12:25 34.882674 -116.900562 73 25202ft 310kts
29-Sep-20 12:26 34.907724 -116.799775 73 25202ft 311kts
29-Sep-20 12:27 34.932770 -116.698614 73 25202ft 311kts
29-Sep-20 12:28 34.957710 -116.597484 73 25202ft 311kts
29-Sep-20 12:29 34.996021 -116.502704 61 25201ft 313kts
29-Sep-20 12:30 35.039301 -116.405289 61 23799ft 337kts
29-Sep-20 12:31 35.084124 -116.304072 62 22290ft 337kts
29-Sep-20 12:32 35.128437 -116.203676 62 20795ft 333kts
29-Sep-20 12:33 35.171971 -116.104749 62 19329ft 327kts
29-Sep-20 12:34 35.214801 -116.007137 62 17888ft 324kts
29-Sep-20 12:35 35.256908 -115.910910 62 16469ft 318kts
29-Sep-20 12:36 35.298343 -115.815935 62 15073ft 314kts
29-Sep-20 12:37 35.351509 -115.732475 47 13692ft 311kts
29-Sep-20 12:38 35.409863 -115.654770 47 12325ft 307kts
29-Sep-20 12:39 35.467300 -115.578029 47 10973ft 302kts
29-Sep-20 12:40 35.522895 -115.503552 47 10051ft 283kts
29-Sep-20 12:41 35.573684 -115.434141 48 10053ft 267kts
29-Sep-20 12:42 35.623843 -115.363311 48 9057ft 280kts
29-Sep-20 12:43 35.675351 -115.290384 49 7799ft 281kts
29-Sep-20 12:44 35.722675 -115.216234 59 7051ft 257kts
29-Sep-20 12:45 35.759237 -115.145273 44 6323ft 232kts
29-Sep-20 12:46 35.819912 -115.136499 0 5927ft 221kts
29-Sep-20 12:47 35.877906 -115.136134 0 5921ft 200kts
29-Sep-20 12:48 35.927917 -115.135789 0 3988ft 156kts
29-Sep-20 12:49 35.960883 -115.135580 1 2578ft 83kts
29-Sep-20 12:50 35.970925 -115.136220 270 2447ft 3kts
29-Sep-20 12:51 35.970925 -115.136332 270 2447ft 0kts
29-Sep-20 12:52 35.974276 -115.136441 356 2430ft 9kts
29-Sep-20 12:53 35.974921 -115.138372 79 2424ft 2kts
29-Sep-20 12:54 35.975072 -115.138266 1 2425ft 0kts
29-Sep-20 12:55 35.975072 -115.138266 1 2425ft 0kts
29-Sep-20 12:56 35.975072 -115.138266 1 2425ft 0kts
29-Sep-20 12:57 35.975072 -115.138266 1 2425ft 0kts
29-Sep-20 12:58 35.975072 -115.138266 1 2425ft 0kts
29-Sep-20 13:00 35.975072 -115.138266 1 2425ft 0kts

Navigation Log

Ident Type
Flight plan parsing failed, navigation log unavailable